Time;durP1;ratioP1;P1;durP2;ratioP2;P2;SDS_P1;SDS_P2;PMS_P1;PMS_P2;Temp;Humidity;BMP_temperature;BMP_pressure;BME280_temperature;BME280_humidity;BME280_pressure;Samples;Min_cycle;Max_cycle;Signal;HPM_P1;HPM_P2
2022/04/21 00:00:07;;;;;;;16.70;6.70;;;;;;;7.29;79.55;99792.66;104970;1273;74674;-62
2022/04/21 00:03:04;;;;;;;19.90;7.40;;;;;;;7.32;79.18;99788.06;104633;1277;68650;-60
2022/04/21 00:05:52;;;;;;;19.40;7.90;;;;;;;7.32;78.83;99787.20;104448;1277;74432;-62
2022/04/21 00:08:41;;;;;;;18.70;7.30;;;;;;;7.30;78.69;99788.02;104666;1277;61225;-61
2022/04/21 00:11:29;;;;;;;17.70;7.20;;;;;;;7.29;78.65;99788.66;104908;1275;59685;-64
2022/04/21 00:14:17;;;;;;;14.90;6.40;;;;;;;7.27;78.82;99785.91;104429;1277;72712;-62
2022/04/21 00:17:05;;;;;;;18.10;7.70;;;;;;;7.26;79.08;99782.48;104713;1277;68476;-61
2022/04/21 00:19:53;;;;;;;16.40;7.20;;;;;;;7.22;78.82;99787.66;103424;1277;1003800;-62
2022/04/21 00:25:48;;;;;;;14.10;6.30;;;;;;;7.13;78.81;99787.56;104841;1277;60255;-61
2022/04/21 00:28:36;;;;;;;15.90;6.20;;;;;;;7.14;78.83;99789.09;104697;1277;73647;-62
2022/04/21 00:31:24;;;;;;;15.70;7.00;;;;;;;7.14;79.20;99788.94;104542;1276;68600;-61
2022/04/21 00:34:13;;;;;;;19.10;6.20;;;;;;;7.14;79.28;99791.73;104654;1277;74435;-61
2022/04/21 00:37:04;;;;;;;16.90;6.80;;;;;;;7.18;79.34;99789.41;104825;1277;59787;-64
2022/04/21 00:39:52;;;;;;;16.40;6.20;;;;;;;7.21;79.44;99788.63;104861;1275;60665;-64
2022/04/21 00:42:42;;;;;;;18.30;6.80;;;;;;;7.24;79.62;99786.33;104917;1274;72443;-61
2022/04/21 00:45:32;;;;;;;16.80;6.30;;;;;;;7.25;79.32;99788.16;105031;1274;67480;-63
2022/04/21 00:48:20;;;;;;;16.70;7.00;;;;;;;7.25;79.39;99786.61;104809;1274;74385;-65
2022/04/21 00:51:08;;;;;;;13.80;6.40;;;;;;;7.25;79.47;99783.96;104943;1274;59646;-64
2022/04/21 00:54:00;;;;;;;18.50;7.20;;;;;;;7.26;79.56;99782.48;105214;1274;59659;-64
2022/04/21 00:56:50;;;;;;;14.70;6.00;;;;;;;7.26;79.30;99782.66;104995;1274;74666;-61
2022/04/21 00:59:38;;;;;;;15.50;5.80;;;;;;;7.25;79.49;99780.60;104826;1274;69526;-61
2022/04/21 01:05:34;;;;;;;13.70;5.40;;;;;;;7.20;79.42;99783.59;104871;1274;60925;-61
2022/04/21 01:08:22;;;;;;;16.10;6.20;;;;;;;7.22;79.53;99786.13;104838;1274;60976;-63
2022/04/21 01:11:13;;;;;;;15.00;5.60;;;;;;;7.26;79.65;99784.91;104759;1274;73672;-63
2022/04/21 01:14:01;;;;;;;16.50;6.50;;;;;;;7.28;79.29;99778.79;104817;1274;68719;-61
2022/04/21 01:16:49;;;;;;;15.60;6.20;;;;;;;7.29;79.26;99772.72;104768;1274;73411;-61
2022/04/21 01:19:37;;;;;;;13.80;5.50;;;;;;;7.27;79.68;99774.10;105038;1274;59776;-61
2022/04/21 01:22:26;;;;;;;18.50;6.30;;;;;;;7.28;79.57;99778.29;104831;1274;60634;-62
2022/04/21 01:25:14;;;;;;;14.40;5.70;;;;;;;7.30;79.71;99781.19;104706;1274;73668;-61
2022/04/21 01:28:03;;;;;;;16.90;6.10;;;;;;;7.31;79.91;99781.09;104864;1274;68363;-60
2022/04/21 01:30:55;;;;;;;14.70;5.90;;;;;;;7.31;79.81;99779.44;105008;1274;73259;-64
2022/04/21 01:33:43;;;;;;;15.20;5.70;;;;;;;7.30;79.62;99778.31;104914;1274;59685;-63
2022/04/21 01:36:31;;;;;;;13.80;6.10;;;;;;;7.30;79.78;99776.38;104838;1274;60747;-65
2022/04/21 01:42:25;;;;;;;16.40;6.20;;;;;;;7.31;79.72;99770.48;105111;1274;68604;-61
2022/04/21 01:45:13;;;;;;;13.00;5.60;;;;;;;7.38;79.81;99776.20;104897;1274;74613;-61
2022/04/21 01:48:03;;;;;;;14.60;5.80;;;;;;;7.42;79.72;99777.00;104958;1274;59666;-59
2022/04/21 01:50:51;;;;;;;14.40;6.30;;;;;;;7.45;79.92;99769.55;104721;1274;61471;-61
2022/04/21 01:53:39;;;;;;;15.60;5.70;;;;;;;7.48;79.81;99768.77;105298;1274;71899;-63
2022/04/21 01:56:27;;;;;;;14.80;5.80;;;;;;;7.51;79.91;99772.66;106036;1274;66661;-62
2022/04/21 01:59:16;;;;;;;15.00;6.00;;;;;;;7.52;79.77;99777.16;105934;1274;73133;-62
2022/04/21 02:02:04;;;;;;;14.00;5.60;;;;;;;7.54;79.67;99773.33;106149;1274;59762;-61
2022/04/21 02:04:52;;;;;;;16.60;6.90;;;;;;;7.55;79.69;99771.13;105447;1277;60216;-64
2022/04/21 02:07:44;;;;;;;14.80;5.80;;;;;;;7.56;79.75;99764.70;104798;1276;75166;-62
2022/04/21 02:10:32;;;;;;;15.90;6.10;;;;;;;7.59;79.68;99765.08;104746;1277;69464;-61
2022/04/21 02:13:20;;;;;;;14.00;5.70;;;;;;;7.61;79.92;99759.05;104947;1277;73711;-62
2022/04/21 02:16:08;;;;;;;11.60;5.40;;;;;;;7.63;79.63;99755.58;104670;1276;59659;-61
2022/04/21 02:18:56;;;;;;;15.60;5.70;;;;;;;7.64;79.45;99754.63;104644;1277;61724;-61
2022/04/21 02:21:43;;;;;;;15.60;5.90;;;;;;;7.65;79.71;99758.81;104683;1276;74662;-64
2022/04/21 02:24:31;;;;;;;12.40;5.20;;;;;;;7.65;79.80;99759.27;104662;1277;68440;-63
2022/04/21 02:27:19;;;;;;;14.10;5.70;;;;;;;7.67;79.76;99762.52;104633;1276;73790;-62
2022/04/21 02:30:10;;;;;;;13.00;5.20;;;;;;;7.65;79.71;99764.73;104643;1276;59632;-63
2022/04/21 02:32:58;;;;;;;16.40;5.70;;;;;;;7.67;79.88;99763.94;104517;1277;59730;-61
2022/04/21 02:35:47;;;;;;;12.90;5.50;;;;;;;7.68;79.73;99765.11;104672;1274;73883;-62
2022/04/21 02:38:35;;;;;;;13.00;5.10;;;;;;;7.69;80.01;99766.48;104832;1272;68756;-61
2022/04/21 02:41:23;;;;;;;12.10;5.50;;;;;;;7.69;79.97;99771.22;104792;1274;73607;-61
2022/04/21 02:44:11;;;;;;;13.00;5.90;;;;;;;7.70;79.82;99771.99;104805;1274;59751;-62
2022/04/21 02:47:00;;;;;;;13.40;5.50;;;;;;;7.74;80.27;99773.33;104752;1274;60422;-64
2022/04/21 02:49:50;;;;;;;14.00;5.20;;;;;;;7.78;80.25;99772.90;104868;1274;74794;-60
2022/04/21 02:52:39;;;;;;;12.10;5.20;;;;;;;7.81;80.04;99775.50;104788;1273;69634;-62
2022/04/21 02:58:34;;;;;;;12.40;5.60;;;;;;;7.82;79.90;99771.00;104734;1274;59665;-60
2022/04/21 03:01:23;;;;;;;11.80;5.60;;;;;;;7.84;79.88;99772.42;104815;1274;59746;-62
2022/04/21 03:04:11;;;;;;;14.00;6.00;;;;;;;7.85;79.89;99777.33;104578;1274;73960;-62
2022/04/21 03:06:59;;;;;;;13.30;5.70;;;;;;;7.87;79.90;99780.42;104869;1271;68414;-63
2022/04/21 03:09:47;;;;;;;14.60;6.10;;;;;;;7.88;79.88;99781.41;104968;1274;74449;-62
2022/04/21 03:12:35;;;;;;;14.80;6.50;;;;;;;7.89;79.90;99785.20;104759;1274;59743;-61
2022/04/21 03:15:23;;;;;;;11.70;6.00;;;;;;;7.90;79.77;99789.05;105070;1273;60614;-63
2022/04/21 03:18:11;;;;;;;15.20;5.90;;;;;;;7.89;79.76;99788.17;104682;1274;73812;-62
2022/04/21 03:24:21;;;;;;;15.50;5.90;;;;;;;7.88;79.73;99793.36;105107;1273;73441;-62
2022/04/21 03:27:10;;;;;;;16.20;6.00;;;;;;;7.85;79.94;99787.23;105203;1273;60629;-62
2022/04/21 03:30:08;;;;;;;14.80;6.10;;;;;;;7.83;80.07;99788.59;104737;1273;60119;-63
2022/04/21 03:32:56;;;;;;;14.30;6.20;;;;;;;7.81;80.12;99790.52;104843;1274;73611;-62
2022/04/21 03:35:43;;;;;;;16.00;6.10;;;;;;;7.81;80.42;99797.73;104835;1274;68691;-62
2022/04/21 03:38:32;;;;;;;15.20;5.70;;;;;;;7.83;80.47;99792.31;105052;1274;73249;-60
2022/04/21 03:41:20;;;;;;;11.60;5.20;;;;;;;7.83;80.39;99793.19;104849;1274;59755;-61
2022/04/21 03:44:09;;;;;;;13.60;5.70;;;;;;;7.83;80.70;99792.31;104882;1274;62138;-63
2022/04/21 03:46:58;;;;;;;13.60;6.00;;;;;;;7.84;80.70;99791.02;104820;1274;73759;-61
2022/04/21 03:49:46;;;;;;;13.40;5.60;;;;;;;7.85;80.86;99791.66;104980;1274;68504;-61
2022/04/21 03:52:34;;;;;;;15.80;6.40;;;;;;;7.86;80.84;99792.67;104804;1274;74187;-63
2022/04/21 03:55:22;;;;;;;12.50;5.70;;;;;;;7.87;80.96;99795.02;105180;1274;61078;-61
2022/04/21 03:58:10;;;;;;;11.90;5.80;;;;;;;7.90;80.96;99793.23;104981;1274;61057;-59
2022/04/21 04:00:58;;;;;;;13.20;5.90;;;;;;;7.94;80.89;99793.14;104903;1274;74028;-62
2022/04/21 04:03:52;;;;;;;13.50;5.10;;;;;;;7.99;80.89;99787.69;105065;1273;69568;-60
2022/04/21 04:12:54;;;;;;;11.60;5.10;;;;;;;8.21;80.58;99790.00;104995;1274;60426;-63
2022/04/21 04:15:47;;;;;;;11.30;4.40;;;;;;;8.28;80.62;99793.22;104882;1274;74579;-62
2022/04/21 04:18:35;;;;;;;14.10;4.90;;;;;;;8.33;79.95;99791.37;104854;1274;66791;-61
2022/04/21 04:21:22;;;;;;;11.00;5.20;;;;;;;8.40;79.88;99797.65;105068;1272;74636;-62
2022/04/21 04:24:10;;;;;;;12.90;4.60;;;;;;;8.46;79.61;99802.15;104991;1274;59650;-62
2022/04/21 04:26:58;;;;;;;12.10;4.50;;;;;;;8.51;79.22;99801.95;104381;1273;60933;-65
2022/04/21 04:29:46;;;;;;;10.60;4.40;;;;;;;8.60;79.07;99805.60;105675;1272;74770;-63
2022/04/21 04:32:36;;;;;;;11.50;4.50;;;;;;;8.70;78.72;99802.38;104745;1273;67443;-63
2022/04/21 04:35:25;;;;;;;9.80;4.10;;;;;;;8.83;78.19;99802.11;104899;1273;74495;-63
2022/04/21 04:38:14;;;;;;;10.70;4.30;;;;;;;9.00;77.61;99795.90;104666;1274;59854;-64
2022/04/21 04:42:16;;;;;;;9.40;3.50;;;;;;;9.17;77.05;99794.27;104809;1273;59770;-66
2022/04/21 04:44:10;;;;;;;9.00;3.50;;;;;;;9.37;75.91;99793.41;105276;1274;74234;-64
2022/04/21 04:46:58;;;;;;;8.30;3.40;;;;;;;9.50;75.20;99792.95;104989;1274;69858;-64
2022/04/21 04:49:46;;;;;;;8.70;3.50;;;;;;;9.58;74.46;99794.13;104621;1273;73502;-67
2022/04/21 04:52:34;;;;;;;9.70;3.80;;;;;;;9.62;73.71;99789.23;104910;1274;60064;-63
2022/04/21 04:55:22;;;;;;;8.70;3.60;;;;;;;9.62;73.27;99784.13;104575;1273;59590;-63
2022/04/21 04:58:10;;;;;;;9.30;3.20;;;;;;;9.62;73.33;99789.55;104795;1274;74581;-65
2022/04/21 05:00:59;;;;;;;9.00;3.60;;;;;;;9.59;72.69;99795.32;105158;1272;68872;-67
2022/04/21 05:03:48;;;;;;;8.60;3.30;;;;;;;9.56;72.64;99796.59;105003;1274;73500;-63
2022/04/21 05:06:37;;;;;;;8.00;3.30;;;;;;;9.57;72.59;99799.01;105081;1274;59693;-66
2022/04/21 05:09:25;;;;;;;9.10;3.30;;;;;;;9.58;72.58;99799.65;105007;1273;60992;-64
2022/04/21 05:12:13;;;;;;;8.90;3.30;;;;;;;9.60;71.87;99803.75;105071;1272;74152;-65
2022/04/21 05:15:02;;;;;;;9.50;3.60;;;;;;;9.60;71.63;99802.46;104970;1274;67244;-64
2022/04/21 05:17:51;;;;;;;11.00;3.50;;;;;;;9.62;71.67;99801.42;105151;1272;72567;-67
2022/04/21 05:20:46;;;;;;;8.80;3.20;;;;;;;9.68;71.51;99798.33;105148;1274;59764;-68
2022/04/21 05:23:36;;;;;;;10.20;3.60;;;;;;;9.75;70.86;99797.77;104927;1273;60815;-65
2022/04/21 05:26:25;;;;;;;8.60;3.40;;;;;;;9.82;70.77;99795.77;104937;1274;72802;-65
2022/04/21 05:32:26;;;;;;;9.40;3.50;;;;;;;10.03;69.47;99800.52;104846;1274;72672;-66
2022/04/21 05:35:16;;;;;;;9.70;3.90;;;;;;;10.19;69.34;99801.08;104888;1274;59683;-71
2022/04/21 05:38:04;;;;;;;9.00;3.50;;;;;;;10.47;68.49;99796.30;104823;1274;61193;-66
2022/04/21 05:40:53;;;;;;;11.10;5.40;;;;;;;11.13;66.21;99795.38;104977;1274;74543;-68
2022/04/21 05:43:44;;;;;;;9.80;3.50;;;;;;;12.28;63.22;99792.90;104976;1274;66478;-66
2022/04/21 05:46:32;;;;;;;9.40;3.40;;;;;;;13.68;59.54;99792.00;105154;1274;72846;-67
2022/04/21 05:49:21;;;;;;;10.30;3.40;;;;;;;15.02;55.40;99791.67;104862;1274;60094;-67
2022/04/21 05:52:12;;;;;;;11.40;3.00;;;;;;;16.43;52.21;99782.75;104738;1274;61925;-65
2022/04/21 05:55:00;;;;;;;9.10;3.20;;;;;;;17.69;48.73;99782.53;104719;1273;72613;-69
2022/04/21 05:57:56;;;;;;;10.70;3.10;;;;;;;18.85;44.89;99778.98;105173;1273;68211;-69
2022/04/21 06:00:44;;;;;;;10.20;3.50;;;;;;;19.46;42.02;99770.05;105082;1274;74253;-70
2022/04/21 06:03:32;;;;;;;10.80;3.20;;;;;;;19.01;42.63;99766.55;105574;1273;59673;-70
2022/04/21 06:06:20;;;;;;;10.60;3.90;;;;;;;19.70;41.42;99762.00;105314;1274;60274;-69
2022/04/21 06:09:08;;;;;;;9.30;2.90;;;;;;;20.53;39.02;99751.81;105184;1273;74628;-72
2022/04/21 06:11:55;;;;;;;10.00;3.40;;;;;;;21.43;37.01;99744.50;104982;1274;68883;-68
2022/04/21 06:14:45;;;;;;;8.60;3.40;;;;;;;22.31;35.84;99742.77;104822;1273;72624;-70
2022/04/21 06:17:32;;;;;;;9.40;3.40;;;;;;;23.26;33.71;99735.20;104945;1274;59679;-72
2022/04/21 06:20:20;;;;;;;10.00;3.20;;;;;;;24.03;31.68;99728.09;105679;1274;59595;-69
2022/04/21 06:23:08;;;;;;;9.10;3.30;;;;;;;24.59;30.31;99727.24;105099;1274;72259;-70
2022/04/21 06:26:03;;;;;;;9.30;3.20;;;;;;;25.26;29.51;99726.23;105234;1274;68048;-69
2022/04/21 06:28:57;;;;;;;10.80;3.50;;;;;;;25.91;28.62;99724.23;105176;1274;70485;-68
2022/04/21 06:31:45;;;;;;;9.40;3.40;;;;;;;26.66;27.29;99730.05;105073;1273;59992;-68
2022/04/21 06:34:33;;;;;;;11.40;2.70;;;;;;;27.11;25.78;99729.54;105120;1274;62078;-70
2022/04/21 06:37:21;;;;;;;8.40;2.70;;;;;;;27.26;25.13;99729.80;105335;1274;74809;-72
2022/04/21 06:40:09;;;;;;;7.50;2.80;;;;;;;27.34;24.81;99737.14;105184;1274;66753;-67
2022/04/21 06:42:58;;;;;;;10.70;3.20;;;;;;;27.52;24.66;99734.43;105404;1273;72657;-69
2022/04/21 06:49:02;;;;;;;10.90;3.40;;;;;;;28.38;23.73;99726.10;105174;1274;60257;-68
2022/04/21 06:51:50;;;;;;;9.10;2.80;;;;;;;28.69;23.17;99729.08;105118;1274;74122;-70
2022/04/21 06:54:37;;;;;;;8.00;2.50;;;;;;;29.04;22.64;99729.71;105506;1272;67801;-69
2022/04/21 06:57:25;;;;;;;10.40;3.20;;;;;;;29.08;21.98;99726.55;105175;1274;74549;-70
2022/04/21 07:00:14;;;;;;;9.50;2.70;;;;;;;29.13;22.38;99723.27;105208;1274;59640;-69
2022/04/21 07:03:01;;;;;;;8.10;2.50;;;;;;;29.25;22.10;99723.76;105119;1274;60305;-70
2022/04/21 07:05:51;;;;;;;9.60;2.40;;;;;;;29.16;21.91;99719.23;105214;1274;74751;-69
2022/04/21 07:08:39;;;;;;;10.80;2.70;;;;;;;29.26;21.95;99719.71;105088;1272;67046;-70
2022/04/21 07:11:27;;;;;;;9.10;2.60;;;;;;;29.44;21.94;99718.21;105234;1274;72686;-71
2022/04/21 07:14:15;;;;;;;9.80;2.70;;;;;;;29.64;21.52;99716.75;105068;1274;59576;-70
2022/04/21 07:17:04;;;;;;;9.20;2.30;;;;;;;29.95;21.20;99709.52;105166;1274;61114;-68
2022/04/21 07:19:52;;;;;;;8.20;2.40;;;;;;;30.32;20.92;99707.91;104961;1274;74853;-70
2022/04/21 07:22:40;;;;;;;7.80;2.60;;;;;;;30.46;20.69;99705.53;105084;1274;67953;-71
2022/04/21 07:25:28;;;;;;;9.30;2.40;;;;;;;30.77;20.36;99711.52;105122;1274;74348;-69
2022/04/21 07:28:16;;;;;;;6.70;2.30;;;;;;;30.86;19.74;99704.20;105020;1273;59650;-71
2022/04/21 07:31:04;;;;;;;8.00;2.20;;;;;;;30.87;19.96;99701.06;105136;1274;59835;-69
2022/04/21 07:33:53;;;;;;;7.30;2.00;;;;;;;30.94;19.64;99697.98;105192;1273;73504;-72
2022/04/21 07:36:42;;;;;;;7.50;1.80;;;;;;;31.01;19.68;99699.59;105034;1274;69430;-68
2022/04/21 07:39:30;;;;;;;7.70;2.10;;;;;;;30.95;19.20;99701.40;105042;1274;73372;-70
2022/04/21 07:42:18;;;;;;;7.80;1.90;;;;;;;30.80;19.52;99704.46;105049;1274;60024;-71
2022/04/21 07:45:07;;;;;;;9.60;2.20;;;;;;;30.77;19.67;99702.02;105494;1274;60563;-72
2022/04/21 07:47:55;;;;;;;7.80;2.20;;;;;;;30.80;19.70;99701.52;104911;1274;71917;-70
2022/04/21 07:50:42;;;;;;;7.40;1.90;;;;;;;30.72;19.83;99701.83;105071;1274;68013;-70
2022/04/21 07:53:40;;;;;;;7.60;2.30;;;;;;;30.54;19.54;99697.11;104924;1273;72604;-68
2022/04/21 07:56:28;;;;;;;9.70;2.50;;;;;;;30.52;19.63;99696.60;105190;1271;59586;-71
2022/04/21 07:59:15;;;;;;;6.30;1.90;;;;;;;30.32;19.89;99700.00;105119;1273;60535;-70
2022/04/21 08:02:06;;;;;;;8.00;2.20;;;;;;;29.99;20.15;99698.27;105264;1273;73257;-72
2022/04/21 08:04:54;;;;;;;7.80;2.50;;;;;;;29.97;20.10;99695.84;105463;1274;69122;-70
2022/04/21 08:07:44;;;;;;;10.60;2.30;;;;;;;30.02;20.26;99696.83;105076;1273;74301;-72
2022/04/21 08:10:38;;;;;;;9.00;2.60;;;;;;;29.96;20.36;99696.05;104906;1273;59580;-70
2022/04/21 08:13:28;;;;;;;8.40;2.80;;;;;;;29.84;20.56;99692.00;105060;1273;62081;-70
2022/04/21 08:16:16;;;;;;;8.10;2.40;;;;;;;29.77;20.66;99695.36;104786;1273;74669;-73
2022/04/21 08:19:04;;;;;;;9.20;2.50;;;;;;;29.91;20.62;99694.61;104958;1273;66884;-70
2022/04/21 08:21:52;;;;;;;9.80;2.20;;;;;;;30.13;20.57;99692.29;104973;1273;73205;-71
2022/04/21 08:34:20;;;;;;;9.30;2.90;;;;;;;29.81;20.99;99696.52;104806;1273;67813;-70
2022/04/21 08:37:18;;;;;;;9.70;2.80;;;;;;;29.81;20.73;99695.67;104981;1273;73266;-72
2022/04/21 08:40:08;;;;;;;10.70;3.00;;;;;;;29.93;20.46;99697.00;105146;1273;59654;-70
2022/04/21 08:42:56;;;;;;;7.90;2.40;;;;;;;30.03;20.15;99689.65;105144;1273;59523;-70
2022/04/21 08:45:47;;;;;;;9.30;2.40;;;;;;;30.13;19.56;99689.86;105249;1273;71855;-71
2022/04/21 08:48:35;;;;;;;10.10;2.30;;;;;;;30.23;18.98;99689.27;104982;1273;69386;-71
2022/04/21 08:51:25;;;;;;;10.30;2.10;;;;;;;30.38;18.72;99681.18;104882;1273;72645;-72
2022/04/21 08:54:14;;;;;;;8.90;2.10;;;;;;;30.53;18.34;99685.23;105426;1273;59708;-74
2022/04/21 08:57:05;;;;;;;8.50;2.20;;;;;;;30.42;18.42;99679.85;105369;1273;60282;-70
2022/04/21 08:59:53;;;;;;;8.80;2.10;;;;;;;30.50;18.30;99684.17;105056;1273;75141;-72
2022/04/21 09:02:48;;;;;;;10.20;2.30;;;;;;;30.26;17.87;99682.31;104955;1273;65901;-72
2022/04/21 09:05:36;;;;;;;7.20;1.90;;;;;;;30.00;17.93;99685.35;104639;1273;386301;-70
2022/04/21 09:08:28;;;;;;;9.00;2.30;;;;;;;30.01;17.68;99684.36;104971;1273;59778;-69
2022/04/21 09:11:21;;;;;;;8.90;2.70;;;;;;;30.11;17.86;99685.63;105170;1273;60573;-69
2022/04/21 09:14:17;;;;;;;8.50;2.20;;;;;;;30.06;17.51;99687.93;105250;1273;74253;-69
2022/04/21 09:17:05;;;;;;;11.80;2.30;;;;;;;30.00;17.63;99688.25;105042;1273;68041;-68
2022/04/21 09:20:00;;;;;;;7.50;2.20;;;;;;;29.96;17.21;99689.41;105021;1273;73243;-68
2022/04/21 09:22:55;;;;;;;8.70;3.20;;;;;;;30.03;17.37;99690.27;105216;1273;59763;-71
2022/04/21 09:25:52;;;;;;;10.10;4.70;;;;;;;30.17;17.13;99684.64;105180;1274;60962;-69
2022/04/21 09:28:40;;;;;;;7.50;2.40;;;;;;;30.39;17.14;99687.89;105186;1273;73039;-69
2022/04/21 09:31:29;;;;;;;8.50;3.50;;;;;;;30.50;16.49;99687.09;104957;1274;68528;-70
2022/04/21 09:34:17;;;;;;;8.30;3.90;;;;;;;30.29;16.44;99690.36;104962;1273;72830;-70
2022/04/21 09:37:06;;;;;;;7.10;2.00;;;;;;;29.95;16.17;99688.30;104912;1273;59659;-69
2022/04/21 09:39:54;;;;;;;7.90;2.00;;;;;;;29.77;16.43;99680.32;104941;1272;59941;-68
2022/04/21 09:42:43;;;;;;;8.80;2.20;;;;;;;29.81;16.16;99684.17;105051;1273;73286;-68
2022/04/21 09:48:46;;;;;;;6.60;2.10;;;;;;;29.61;16.53;99677.45;105075;1273;73160;-71
2022/04/21 09:51:34;;;;;;;6.90;1.80;;;;;;;29.67;16.52;99681.14;105184;1273;59758;-72
2022/04/21 09:54:29;;;;;;;7.70;1.70;;;;;;;29.59;16.23;99685.05;104947;1273;62218;-70
2022/04/21 09:57:32;;;;;;;5.90;1.90;;;;;;;29.40;16.15;99681.89;105195;1273;73030;-71
2022/04/21 10:00:21;;;;;;;9.10;2.00;;;;;;;29.45;16.58;99677.78;104962;1273;67770;-69
2022/04/21 10:03:11;;;;;;;8.20;3.00;;;;;;;29.68;16.51;99681.36;105231;1273;71954;-70
2022/04/21 10:06:00;;;;;;;8.50;2.10;;;;;;;29.33;16.17;99681.40;104822;1273;59695;-71
2022/04/21 10:08:49;;;;;;;6.20;1.80;;;;;;;29.13;16.46;99681.16;104969;1274;60031;-69
2022/04/21 10:11:44;;;;;;;9.50;2.00;;;;;;;29.12;16.55;99683.71;104969;1273;72993;-70
2022/04/21 10:14:33;;;;;;;6.20;1.70;;;;;;;28.89;16.31;99679.96;105181;1273;66541;-70
2022/04/21 10:17:21;;;;;;;6.30;2.00;;;;;;;28.79;16.55;99679.05;105044;1273;73436;-72
2022/04/21 10:20:11;;;;;;;7.40;1.70;;;;;;;28.85;16.76;99678.81;105141;1273;60008;-67
2022/04/21 10:23:01;;;;;;;7.00;1.70;;;;;;;28.83;16.25;99680.54;105001;1273;60375;-71
2022/04/21 10:26:03;;;;;;;7.40;2.10;;;;;;;28.82;16.41;99683.14;105432;1273;73022;-69
2022/04/21 10:29:15;;;;;;;6.10;1.70;;;;;;;28.69;16.76;99681.89;105011;1273;67350;-70
2022/04/21 10:32:04;;;;;;;5.90;1.60;;;;;;;28.57;16.64;99679.48;104963;1273;72697;-69
2022/04/21 10:34:56;;;;;;;5.90;1.70;;;;;;;28.40;17.09;99679.23;105099;1273;59749;-68
2022/04/21 10:37:44;;;;;;;6.30;1.90;;;;;;;28.00;17.07;99680.17;105263;1274;61088;-67
2022/04/21 10:40:32;;;;;;;6.80;1.90;;;;;;;27.73;17.61;99677.27;104999;1273;73481;-71
2022/04/21 10:43:19;;;;;;;6.90;1.80;;;;;;;27.68;17.89;99675.77;105006;1273;66094;-69
2022/04/21 10:46:22;;;;;;;5.90;1.50;;;;;;;27.82;18.01;99679.22;105073;1273;72175;-63
2022/04/21 10:49:12;;;;;;;7.30;1.80;;;;;;;27.97;16.97;99675.89;104664;1273;59658;-69
2022/04/21 10:58:42;;;;;;;7.50;1.80;;;;;;;27.16;17.66;99681.54;104896;1273;68404;-67
2022/04/21 11:01:33;;;;;;;6.50;2.10;;;;;;;26.77;18.24;99681.88;104683;1271;73431;-67
2022/04/21 11:04:24;;;;;;;7.70;1.90;;;;;;;26.90;18.55;99681.48;104695;1273;59743;-65
2022/04/21 11:07:15;;;;;;;6.50;1.80;;;;;;;27.02;18.24;99682.33;104669;1273;59695;-66
2022/04/21 11:10:26;;;;;;;8.00;2.10;;;;;;;27.06;18.27;99676.34;104711;1273;72840;-66
2022/04/21 11:13:19;;;;;;;6.80;2.10;;;;;;;26.98;18.18;99675.83;104657;1273;68445;-67
2022/04/21 11:16:08;;;;;;;6.70;1.90;;;;;;;26.65;18.51;99674.52;104758;1273;73620;-69
2022/04/21 11:19:33;;;;;;;6.00;1.80;;;;;;;26.46;18.59;99682.40;104705;1273;59749;-67
2022/04/21 11:22:40;;;;;;;7.10;1.90;;;;;;;26.35;18.56;99674.27;104771;1273;59600;-66
2022/04/21 11:25:32;;;;;;;7.50;1.80;;;;;;;25.68;19.00;99677.52;105023;1273;73953;-67
2022/04/21 11:28:25;;;;;;;5.90;1.80;;;;;;;25.21;19.62;99676.88;105066;1273;67122;-69
2022/04/21 11:31:14;;;;;;;9.40;2.50;;;;;;;24.58;20.21;99674.66;104700;1273;73585;-66
2022/04/21 11:34:02;;;;;;;8.20;2.10;;;;;;;24.52;21.00;99672.33;104910;1273;59732;-66
2022/04/21 11:37:01;;;;;;;6.50;1.80;;;;;;;24.53;20.62;99673.46;104997;1273;61016;-68
2022/04/21 11:39:49;;;;;;;8.40;1.90;;;;;;;24.27;21.04;99675.69;104760;1273;73622;-70
2022/04/21 11:42:38;;;;;;;7.00;1.90;;;;;;;23.84;21.88;99672.77;104837;1273;67786;-66
2022/04/21 11:45:28;;;;;;;6.10;2.00;;;;;;;23.22;22.92;99675.43;105167;1273;73453;-67
2022/04/21 11:48:19;;;;;;;7.40;2.10;;;;;;;22.58;23.59;99681.54;104932;1273;59776;-68
2022/04/21 11:51:10;;;;;;;7.20;1.90;;;;;;;22.02;24.81;99679.61;104936;1273;61502;-67
2022/04/21 11:54:07;;;;;;;7.20;2.30;;;;;;;21.77;25.60;99676.06;105061;1273;72844;-70
2022/04/21 11:56:55;;;;;;;6.70;1.90;;;;;;;21.38;25.71;99680.52;104856;1274;68757;-67
2022/04/21 11:59:44;;;;;;;7.60;2.20;;;;;;;20.61;26.53;99678.42;104925;1274;73942;-68
2022/04/21 12:08:49;;;;;;;6.30;2.10;;;;;;;18.50;29.34;99702.52;104793;1274;74710;-68
2022/04/21 12:11:38;;;;;;;8.60;2.30;;;;;;;17.76;30.59;99700.62;105023;1274;68421;-69
2022/04/21 12:14:28;;;;;;;7.60;2.70;;;;;;;17.24;31.82;99699.88;104925;1273;72863;-62
2022/04/21 12:17:16;;;;;;;10.10;2.40;;;;;;;16.91;32.86;99706.91;105177;1274;59642;-72
2022/04/21 12:20:08;;;;;;;6.20;2.10;;;;;;;16.71;33.56;99708.87;104966;1274;60432;-68
2022/04/21 12:22:57;;;;;;;7.60;2.20;;;;;;;16.60;33.92;99707.13;105280;1272;74977;-67
2022/04/21 12:25:48;;;;;;;7.70;2.30;;;;;;;16.47;34.31;99711.27;106737;1273;68382;-69
2022/04/21 12:28:47;;;;;;;7.60;2.50;;;;;;;16.32;34.30;99709.58;105497;1273;73092;-70
2022/04/21 12:31:49;;;;;;;7.40;2.40;;;;;;;16.10;34.93;99712.84;105137;1274;59781;-67
2022/04/21 12:34:40;;;;;;;7.70;2.60;;;;;;;15.91;35.25;99712.89;104989;1274;60949;-67
2022/04/21 12:37:30;;;;;;;9.20;2.50;;;;;;;15.70;34.94;99713.69;104774;1274;74828;-67
2022/04/21 12:40:17;;;;;;;7.10;2.50;;;;;;;15.47;35.53;99714.92;104792;1274;66160;-66
2022/04/21 12:43:07;;;;;;;7.50;2.10;;;;;;;15.33;35.77;99718.88;105027;1274;72070;-67
2022/04/21 12:45:58;;;;;;;6.20;2.10;;;;;;;15.25;35.85;99718.14;105093;1274;59859;-65
2022/04/21 12:48:48;;;;;;;7.70;2.20;;;;;;;15.17;36.43;99715.52;104828;1274;59567;-67
2022/04/21 12:51:47;;;;;;;7.30;2.10;;;;;;;15.11;36.23;99717.59;104889;1274;74820;-65
2022/04/21 12:54:36;;;;;;;7.20;2.10;;;;;;;15.05;36.57;99718.59;105011;1274;69961;-66
2022/04/21 12:57:27;;;;;;;7.50;2.20;;;;;;;15.10;36.62;99717.98;105097;1274;74523;-69
2022/04/21 13:00:15;;;;;;;7.30;1.80;;;;;;;15.05;36.25;99715.64;105042;1274;59783;-66
2022/04/21 13:03:06;;;;;;;6.80;2.20;;;;;;;14.89;36.39;99717.16;104721;1274;60685;-69
2022/04/21 13:05:57;;;;;;;8.60;2.10;;;;;;;14.84;37.16;99721.07;104811;1274;73995;-67
2022/04/21 13:08:45;;;;;;;6.40;1.90;;;;;;;14.81;37.24;99719.31;104707;1274;68702;-67
2022/04/21 13:11:33;;;;;;;6.20;1.90;;;;;;;14.83;37.23;99723.41;104779;1274;71784;-67
2022/04/21 13:14:21;;;;;;;8.30;2.20;;;;;;;14.86;37.82;99721.22;104706;1273;59644;-69
2022/04/21 13:17:09;;;;;;;7.20;2.00;;;;;;;14.86;38.00;99719.59;105157;1274;61594;-68
2022/04/21 13:19:57;;;;;;;8.40;2.30;;;;;;;14.80;38.37;99726.46;104859;1274;74113;-67
2022/04/21 13:22:45;;;;;;;6.80;1.60;;;;;;;14.62;38.33;99723.73;104892;1274;67082;-67
2022/04/21 13:25:33;;;;;;;6.70;2.20;;;;;;;14.53;39.00;99720.73;105051;1274;73382;-71
2022/04/21 13:28:22;;;;;;;7.50;2.10;;;;;;;14.55;39.66;99729.23;104884;1273;59761;-67
2022/04/21 13:34:16;;;;;;;8.70;2.00;;;;;;;14.40;39.51;99730.33;105096;1274;71863;-66
2022/04/21 13:37:05;;;;;;;8.70;2.20;;;;;;;14.30;39.77;99734.69;104870;1274;68968;-69
2022/04/21 13:39:52;;;;;;;9.60;2.10;;;;;;;14.30;40.11;99738.77;104679;1274;73665;-67
2022/04/21 13:42:43;;;;;;;6.20;2.20;;;;;;;14.27;40.13;99735.77;104956;1274;59678;-65
2022/04/21 13:45:31;;;;;;;7.70;2.10;;;;;;;14.23;40.55;99737.22;104702;1273;59570;-65
2022/04/21 13:48:20;;;;;;;6.00;2.00;;;;;;;14.15;40.81;99740.67;104791;1273;72855;-68
2022/04/21 13:51:08;;;;;;;6.70;2.10;;;;;;;14.05;40.85;99738.27;104853;1274;67168;-66
2022/04/21 13:53:56;;;;;;;7.40;2.10;;;;;;;13.89;41.12;99736.04;104890;1273;74304;-68
2022/04/21 13:56:46;;;;;;;7.70;2.00;;;;;;;13.83;41.64;99735.02;104754;1274;59666;-69
2022/04/21 13:59:34;;;;;;;8.60;2.20;;;;;;;13.82;41.25;99735.88;104889;1274;59735;-70
2022/04/21 14:02:22;;;;;;;7.70;2.20;;;;;;;13.82;41.43;99730.84;104967;1273;73835;-66
2022/04/21 14:05:10;;;;;;;10.40;2.00;;;;;;;13.85;41.34;99727.50;105371;1274;67324;-66